sensor_id;sensor_type;location;lat;lon;timestamp;P1;durP1;ratioP1;P2;durP2;ratioP2
31390;SDS011;18022;45.492;11.548;2022-08-24T00:01:09;1.48;;;0.90;;
31390;SDS011;18022;45.492;11.548;2022-08-24T00:03:37;1.00;;;0.95;;
31390;SDS011;18022;45.492;11.548;2022-08-24T00:08:31;3.78;;;1.38;;
31390;SDS011;18022;45.492;11.548;2022-08-24T00:10:57;1.13;;;1.02;;
31390;SDS011;18022;45.492;11.548;2022-08-24T00:13:24;1.88;;;1.45;;
31390;SDS011;18022;45.492;11.548;2022-08-24T00:15:50;1.92;;;1.38;;
31390;SDS011;18022;45.492;11.548;2022-08-24T00:18:16;1.75;;;1.17;;
31390;SDS011;18022;45.492;11.548;2022-08-24T00:20:42;3.70;;;1.45;;
31390;SDS011;18022;45.492;11.548;2022-08-24T00:23:08;2.17;;;1.23;;
31390;SDS011;18022;45.492;11.548;2022-08-24T00:25:34;2.60;;;1.17;;
31390;SDS011;18022;45.492;11.548;2022-08-24T00:28:00;1.33;;;1.05;;
31390;SDS011;18022;45.492;11.548;2022-08-24T00:30:27;5.32;;;1.20;;
31390;SDS011;18022;45.492;11.548;2022-08-24T00:32:53;3.80;;;1.08;;
31390;SDS011;18022;45.492;11.548;2022-08-24T00:35:19;2.13;;;1.20;;
31390;SDS011;18022;45.492;11.548;2022-08-24T00:37:45;1.25;;;1.15;;
31390;SDS011;18022;45.492;11.548;2022-08-24T00:40:15;1.00;;;0.98;;
31390;SDS011;18022;45.492;11.548;2022-08-24T00:42:44;1.30;;;1.20;;
31390;SDS011;18022;45.492;11.548;2022-08-24T00:45:11;3.10;;;1.10;;
31390;SDS011;18022;45.492;11.548;2022-08-24T00:47:46;2.92;;;1.30;;
31390;SDS011;18022;45.492;11.548;2022-08-24T00:50:18;2.00;;;1.20;;
31390;SDS011;18022;45.492;11.548;2022-08-24T00:53:02;1.08;;;1.00;;
31390;SDS011;18022;45.492;11.548;2022-08-24T00:55:35;5.50;;;1.60;;
31390;SDS011;18022;45.492;11.548;2022-08-24T00:58:12;3.97;;;1.40;;
31390;SDS011;18022;45.492;11.548;2022-08-24T01:00:48;2.63;;;1.10;;
31390;SDS011;18022;45.492;11.548;2022-08-24T01:03:18;2.72;;;1.30;;
31390;SDS011;18022;45.492;11.548;2022-08-24T01:05:45;1.33;;;1.23;;
31390;SDS011;18022;45.492;11.548;2022-08-24T01:08:11;5.37;;;1.40;;
31390;SDS011;18022;45.492;11.548;2022-08-24T01:10:46;1.88;;;1.50;;
31390;SDS011;18022;45.492;11.548;2022-08-24T01:13:14;1.38;;;1.30;;
31390;SDS011;18022;45.492;11.548;2022-08-24T01:15:41;2.42;;;1.10;;
31390;SDS011;18022;45.492;11.548;2022-08-24T01:18:12;1.33;;;1.23;;
31390;SDS011;18022;45.492;11.548;2022-08-24T01:21:07;1.33;;;1.05;;
31390;SDS011;18022;45.492;11.548;2022-08-24T01:23:42;1.30;;;1.20;;
31390;SDS011;18022;45.492;11.548;2022-08-24T01:26:10;1.02;;;0.90;;
31390;SDS011;18022;45.492;11.548;2022-08-24T01:28:38;2.90;;;1.23;;
31390;SDS011;18022;45.492;11.548;2022-08-24T01:31:05;2.83;;;1.25;;
31390;SDS011;18022;45.492;11.548;2022-08-24T01:33:31;2.53;;;1.20;;
31390;SDS011;18022;45.492;11.548;2022-08-24T01:35:59;2.80;;;1.30;;
31390;SDS011;18022;45.492;11.548;2022-08-24T01:38:27;2.55;;;1.20;;
31390;SDS011;18022;45.492;11.548;2022-08-24T01:40:55;2.65;;;1.20;;
31390;SDS011;18022;45.492;11.548;2022-08-24T01:43:23;3.50;;;1.10;;
31390;SDS011;18022;45.492;11.548;2022-08-24T01:45:49;2.50;;;1.30;;
31390;SDS011;18022;45.492;11.548;2022-08-24T01:48:15;2.13;;;1.20;;
31390;SDS011;18022;45.492;11.548;2022-08-24T01:50:42;1.48;;;1.30;;
31390;SDS011;18022;45.492;11.548;2022-08-24T01:53:07;3.08;;;1.33;;
31390;SDS011;18022;45.492;11.548;2022-08-24T01:55:34;2.65;;;1.20;;
31390;SDS011;18022;45.492;11.548;2022-08-24T01:58:00;1.30;;;1.20;;
31390;SDS011;18022;45.492;11.548;2022-08-24T02:00:26;4.63;;;1.33;;
31390;SDS011;18022;45.492;11.548;2022-08-24T02:02:53;1.20;;;1.10;;
31390;SDS011;18022;45.492;11.548;2022-08-24T02:07:48;2.42;;;1.10;;
31390;SDS011;18022;45.492;11.548;2022-08-24T02:10:14;7.18;;;1.40;;
31390;SDS011;18022;45.492;11.548;2022-08-24T02:12:41;1.58;;;1.20;;
31390;SDS011;18022;45.492;11.548;2022-08-24T02:15:11;1.10;;;1.00;;
31390;SDS011;18022;45.492;11.548;2022-08-24T02:17:36;5.32;;;1.23;;
31390;SDS011;18022;45.492;11.548;2022-08-24T02:20:03;3.05;;;1.20;;
31390;SDS011;18022;45.492;11.548;2022-08-24T02:22:31;4.80;;;1.20;;
31390;SDS011;18022;45.492;11.548;2022-08-24T02:24:57;1.10;;;1.00;;
31390;SDS011;18022;45.492;11.548;2022-08-24T02:27:23;2.78;;;1.10;;
31390;SDS011;18022;45.492;11.548;2022-08-24T02:29:48;3.13;;;1.17;;
31390;SDS011;18022;45.492;11.548;2022-08-24T02:32:14;2.78;;;1.40;;
31390;SDS011;18022;45.492;11.548;2022-08-24T02:34:40;4.10;;;1.60;;
31390;SDS011;18022;45.492;11.548;2022-08-24T02:37:07;3.70;;;1.10;;
31390;SDS011;18022;45.492;11.548;2022-08-24T02:39:33;4.65;;;1.40;;
31390;SDS011;18022;45.492;11.548;2022-08-24T02:41:59;2.08;;;1.40;;
31390;SDS011;18022;45.492;11.548;2022-08-24T02:44:24;2.97;;;1.33;;
31390;SDS011;18022;45.492;11.548;2022-08-24T02:46:50;4.97;;;1.17;;
31390;SDS011;18022;45.492;11.548;2022-08-24T02:49:16;4.10;;;1.42;;
31390;SDS011;18022;45.492;11.548;2022-08-24T02:51:44;6.88;;;1.25;;
31390;SDS011;18022;45.492;11.548;2022-08-24T02:54:11;2.15;;;1.17;;
31390;SDS011;18022;45.492;11.548;2022-08-24T02:56:38;3.47;;;1.35;;
31390;SDS011;18022;45.492;11.548;2022-08-24T02:59:04;4.78;;;1.10;;
31390;SDS011;18022;45.492;11.548;2022-08-24T03:01:29;2.05;;;1.17;;
31390;SDS011;18022;45.492;11.548;2022-08-24T03:03:55;1.40;;;1.23;;
31390;SDS011;18022;45.492;11.548;2022-08-24T03:06:21;1.25;;;1.00;;
31390;SDS011;18022;45.492;11.548;2022-08-24T03:08:47;2.47;;;1.10;;
31390;SDS011;18022;45.492;11.548;2022-08-24T03:11:13;1.15;;;0.98;;
31390;SDS011;18022;45.492;11.548;2022-08-24T03:13:39;2.13;;;1.10;;
31390;SDS011;18022;45.492;11.548;2022-08-24T03:16:05;1.20;;;1.10;;
31390;SDS011;18022;45.492;11.548;2022-08-24T03:18:31;3.83;;;1.30;;
31390;SDS011;18022;45.492;11.548;2022-08-24T03:20:58;1.17;;;1.00;;
31390;SDS011;18022;45.492;11.548;2022-08-24T03:23:25;3.60;;;1.50;;
31390;SDS011;18022;45.492;11.548;2022-08-24T03:25:52;1.13;;;1.02;;
31390;SDS011;18022;45.492;11.548;2022-08-24T03:28:18;2.33;;;1.20;;
31390;SDS011;18022;45.492;11.548;2022-08-24T03:33:11;3.20;;;1.20;;
31390;SDS011;18022;45.492;11.548;2022-08-24T03:35:37;1.80;;;0.93;;
31390;SDS011;18022;45.492;11.548;2022-08-24T03:38:04;1.65;;;1.25;;
31390;SDS011;18022;45.492;11.548;2022-08-24T03:40:30;2.13;;;1.10;;
31390;SDS011;18022;45.492;11.548;2022-08-24T03:42:57;2.20;;;1.15;;
31390;SDS011;18022;45.492;11.548;2022-08-24T03:45:24;3.88;;;1.20;;
31390;SDS011;18022;45.492;11.548;2022-08-24T03:47:50;1.08;;;0.93;;
31390;SDS011;18022;45.492;11.548;2022-08-24T03:50:16;2.03;;;1.10;;
31390;SDS011;18022;45.492;11.548;2022-08-24T03:52:43;1.60;;;1.00;;
31390;SDS011;18022;45.492;11.548;2022-08-24T03:55:08;1.88;;;1.20;;
31390;SDS011;18022;45.492;11.548;2022-08-24T03:57:34;2.15;;;1.00;;
31390;SDS011;18022;45.492;11.548;2022-08-24T04:00:00;1.27;;;1.17;;
31390;SDS011;18022;45.492;11.548;2022-08-24T04:02:29;1.92;;;1.45;;
31390;SDS011;18022;45.492;11.548;2022-08-24T04:04:54;2.47;;;1.35;;
31390;SDS011;18022;45.492;11.548;2022-08-24T04:07:20;2.08;;;1.05;;
31390;SDS011;18022;45.492;11.548;2022-08-24T04:09:46;1.65;;;1.30;;
31390;SDS011;18022;45.492;11.548;2022-08-24T04:12:11;2.65;;;1.25;;
31390;SDS011;18022;45.492;11.548;2022-08-24T04:14:37;1.40;;;1.30;;
31390;SDS011;18022;45.492;11.548;2022-08-24T04:17:04;1.40;;;1.30;;
31390;SDS011;18022;45.492;11.548;2022-08-24T04:19:30;1.83;;;1.40;;
31390;SDS011;18022;45.492;11.548;2022-08-24T04:21:57;4.73;;;1.60;;
31390;SDS011;18022;45.492;11.548;2022-08-24T04:24:23;4.60;;;1.90;;
31390;SDS011;18022;45.492;11.548;2022-08-24T04:26:50;1.35;;;1.25;;
31390;SDS011;18022;45.492;11.548;2022-08-24T04:29:17;1.85;;;1.30;;
31390;SDS011;18022;45.492;11.548;2022-08-24T04:31:44;4.57;;;1.50;;
31390;SDS011;18022;45.492;11.548;2022-08-24T04:34:11;3.10;;;1.52;;
31390;SDS011;18022;45.492;11.548;2022-08-24T04:36:39;2.17;;;1.30;;
31390;SDS011;18022;45.492;11.548;2022-08-24T04:39:06;2.38;;;1.60;;
31390;SDS011;18022;45.492;11.548;2022-08-24T04:41:32;3.78;;;1.20;;
31390;SDS011;18022;45.492;11.548;2022-08-24T04:43:58;6.93;;;1.58;;
31390;SDS011;18022;45.492;11.548;2022-08-24T04:46:23;4.10;;;1.35;;
31390;SDS011;18022;45.492;11.548;2022-08-24T04:48:50;3.15;;;1.38;;
31390;SDS011;18022;45.492;11.548;2022-08-24T04:51:16;3.20;;;1.33;;
31390;SDS011;18022;45.492;11.548;2022-08-24T04:53:43;1.35;;;1.08;;
31390;SDS011;18022;45.492;11.548;2022-08-24T04:56:11;1.52;;;1.42;;
31390;SDS011;18022;45.492;11.548;2022-08-24T04:58:39;4.07;;;1.20;;
31390;SDS011;18022;45.492;11.548;2022-08-24T05:01:08;1.95;;;1.27;;
31390;SDS011;18022;45.492;11.548;2022-08-24T05:03:39;3.15;;;2.05;;
31390;SDS011;18022;45.492;11.548;2022-08-24T05:06:07;1.42;;;1.33;;
31390;SDS011;18022;45.492;11.548;2022-08-24T05:08:37;1.75;;;1.40;;
31390;SDS011;18022;45.492;11.548;2022-08-24T05:11:04;3.17;;;1.10;;
31390;SDS011;18022;45.492;11.548;2022-08-24T05:13:33;4.50;;;1.23;;
31390;SDS011;18022;45.492;11.548;2022-08-24T05:16:00;1.58;;;1.40;;
31390;SDS011;18022;45.492;11.548;2022-08-24T05:18:26;3.00;;;1.48;;
31390;SDS011;18022;45.492;11.548;2022-08-24T05:20:54;4.72;;;1.63;;
31390;SDS011;18022;45.492;11.548;2022-08-24T05:23:20;1.63;;;1.27;;
31390;SDS011;18022;45.492;11.548;2022-08-24T05:25:47;1.57;;;1.00;;
31390;SDS011;18022;45.492;11.548;2022-08-24T05:28:12;3.03;;;1.52;;
31390;SDS011;18022;45.492;11.548;2022-08-24T05:30:38;2.85;;;1.50;;
31390;SDS011;18022;45.492;11.548;2022-08-24T05:33:04;2.50;;;1.60;;
31390;SDS011;18022;45.492;11.548;2022-08-24T05:35:29;1.73;;;1.25;;
31390;SDS011;18022;45.492;11.548;2022-08-24T05:37:55;2.00;;;1.27;;
31390;SDS011;18022;45.492;11.548;2022-08-24T05:40:21;2.85;;;1.20;;
31390;SDS011;18022;45.492;11.548;2022-08-24T05:42:47;1.63;;;1.35;;
31390;SDS011;18022;45.492;11.548;2022-08-24T05:45:13;1.67;;;1.30;;
31390;SDS011;18022;45.492;11.548;2022-08-24T05:47:39;1.92;;;1.40;;
31390;SDS011;18022;45.492;11.548;2022-08-24T05:50:05;2.25;;;1.20;;
31390;SDS011;18022;45.492;11.548;2022-08-24T05:52:32;3.20;;;1.10;;
31390;SDS011;18022;45.492;11.548;2022-08-24T05:54:59;1.98;;;1.27;;
31390;SDS011;18022;45.492;11.548;2022-08-24T05:57:25;1.48;;;1.38;;
31390;SDS011;18022;45.492;11.548;2022-08-24T05:59:55;1.42;;;1.10;;
31390;SDS011;18022;45.492;11.548;2022-08-24T06:02:21;5.43;;;2.33;;
31390;SDS011;18022;45.492;11.548;2022-08-24T06:04:47;3.28;;;1.30;;
31390;SDS011;18022;45.492;11.548;2022-08-24T06:07:13;2.70;;;1.40;;
31390;SDS011;18022;45.492;11.548;2022-08-24T06:09:39;2.83;;;1.20;;
31390;SDS011;18022;45.492;11.548;2022-08-24T06:12:05;1.83;;;1.50;;
31390;SDS011;18022;45.492;11.548;2022-08-24T06:14:33;1.10;;;1.10;;
31390;SDS011;18022;45.492;11.548;2022-08-24T06:17:01;2.60;;;1.23;;
31390;SDS011;18022;45.492;11.548;2022-08-24T06:19:28;3.20;;;1.42;;
31390;SDS011;18022;45.492;11.548;2022-08-24T06:21:54;1.70;;;1.40;;
31390;SDS011;18022;45.492;11.548;2022-08-24T06:24:20;2.45;;;1.58;;
31390;SDS011;18022;45.492;11.548;2022-08-24T06:27:10;4.18;;;1.60;;
31390;SDS011;18022;45.492;11.548;2022-08-24T06:29:54;1.63;;;1.45;;
31390;SDS011;18022;45.492;11.548;2022-08-24T06:32:24;2.90;;;1.27;;
31390;SDS011;18022;45.492;11.548;2022-08-24T06:34:50;2.20;;;1.40;;
31390;SDS011;18022;45.492;11.548;2022-08-24T06:37:20;7.13;;;1.48;;
31390;SDS011;18022;45.492;11.548;2022-08-24T06:39:50;2.78;;;1.73;;
31390;SDS011;18022;45.492;11.548;2022-08-24T06:42:16;3.75;;;1.40;;
31390;SDS011;18022;45.492;11.548;2022-08-24T06:44:42;3.97;;;1.60;;
31390;SDS011;18022;45.492;11.548;2022-08-24T06:47:08;2.72;;;1.60;;
31390;SDS011;18022;45.492;11.548;2022-08-24T06:49:35;1.67;;;1.57;;
31390;SDS011;18022;45.492;11.548;2022-08-24T06:52:02;1.90;;;1.80;;
31390;SDS011;18022;45.492;11.548;2022-08-24T06:54:31;3.33;;;1.55;;
31390;SDS011;18022;45.492;11.548;2022-08-24T06:56:57;4.30;;;1.70;;
31390;SDS011;18022;45.492;11.548;2022-08-24T06:59:26;3.17;;;1.52;;
31390;SDS011;18022;45.492;11.548;2022-08-24T07:01:53;2.75;;;1.67;;
31390;SDS011;18022;45.492;11.548;2022-08-24T07:04:20;2.42;;;1.50;;
31390;SDS011;18022;45.492;11.548;2022-08-24T07:06:46;4.13;;;1.75;;
31390;SDS011;18022;45.492;11.548;2022-08-24T07:09:12;3.08;;;1.48;;
31390;SDS011;18022;45.492;11.548;2022-08-24T07:11:37;3.65;;;1.70;;
31390;SDS011;18022;45.492;11.548;2022-08-24T07:14:04;2.50;;;1.95;;
31390;SDS011;18022;45.492;11.548;2022-08-24T07:16:30;1.67;;;1.57;;
31390;SDS011;18022;45.492;11.548;2022-08-24T07:18:56;2.72;;;1.65;;
31390;SDS011;18022;45.492;11.548;2022-08-24T07:21:22;2.60;;;2.03;;
31390;SDS011;18022;45.492;11.548;2022-08-24T07:23:48;2.97;;;2.20;;
31390;SDS011;18022;45.492;11.548;2022-08-24T07:26:19;5.25;;;1.65;;
31390;SDS011;18022;45.492;11.548;2022-08-24T07:28:47;8.68;;;1.90;;
31390;SDS011;18022;45.492;11.548;2022-08-24T07:31:14;1.70;;;1.60;;
31390;SDS011;18022;45.492;11.548;2022-08-24T07:33:39;5.80;;;1.83;;
31390;SDS011;18022;45.492;11.548;2022-08-24T07:36:05;4.65;;;1.73;;
31390;SDS011;18022;45.492;11.548;2022-08-24T07:38:31;5.63;;;1.90;;
31390;SDS011;18022;45.492;11.548;2022-08-24T07:40:58;3.00;;;1.42;;
31390;SDS011;18022;45.492;11.548;2022-08-24T07:43:24;3.85;;;1.33;;
31390;SDS011;18022;45.492;11.548;2022-08-24T07:45:50;3.20;;;1.70;;
31390;SDS011;18022;45.492;11.548;2022-08-24T07:48:16;2.63;;;1.63;;
31390;SDS011;18022;45.492;11.548;2022-08-24T07:50:42;2.20;;;1.65;;
31390;SDS011;18022;45.492;11.548;2022-08-24T07:53:08;1.92;;;1.50;;
31390;SDS011;18022;45.492;11.548;2022-08-24T07:55:34;2.70;;;1.50;;
31390;SDS011;18022;45.492;11.548;2022-08-24T07:58:00;2.40;;;1.80;;
31390;SDS011;18022;45.492;11.548;2022-08-24T08:00:26;2.05;;;1.40;;
31390;SDS011;18022;45.492;11.548;2022-08-24T08:02:51;2.55;;;1.35;;
31390;SDS011;18022;45.492;11.548;2022-08-24T08:05:19;1.23;;;1.00;;
31390;SDS011;18022;45.492;11.548;2022-08-24T08:07:47;1.20;;;1.10;;
31390;SDS011;18022;45.492;11.548;2022-08-24T08:10:13;4.38;;;1.27;;
31390;SDS011;18022;45.492;11.548;2022-08-24T08:12:39;6.80;;;1.33;;
31390;SDS011;18022;45.492;11.548;2022-08-24T08:15:06;2.13;;;1.40;;
31390;SDS011;18022;45.492;11.548;2022-08-24T08:17:34;3.45;;;1.27;;
31390;SDS011;18022;45.492;11.548;2022-08-24T08:20:00;1.45;;;1.08;;
31390;SDS011;18022;45.492;11.548;2022-08-24T08:22:26;2.70;;;1.13;;
31390;SDS011;18022;45.492;11.548;2022-08-24T08:25:10;1.20;;;1.10;;
31390;SDS011;18022;45.492;11.548;2022-08-24T08:27:36;4.65;;;1.05;;
31390;SDS011;18022;45.492;11.548;2022-08-24T08:30:05;1.30;;;1.02;;
31390;SDS011;18022;45.492;11.548;2022-08-24T08:32:31;2.00;;;1.00;;
31390;SDS011;18022;45.492;11.548;2022-08-24T08:34:58;3.08;;;0.95;;
31390;SDS011;18022;45.492;11.548;2022-08-24T08:37:23;1.25;;;1.02;;
31390;SDS011;18022;45.492;11.548;2022-08-24T08:39:49;3.33;;;1.00;;
31390;SDS011;18022;45.492;11.548;2022-08-24T08:47:21;10.60;;;1.45;;
31390;SDS011;18022;45.492;11.548;2022-08-24T08:50:15;2.28;;;0.93;;
31390;SDS011;18022;45.492;11.548;2022-08-24T08:55:44;1.30;;;0.90;;
31390;SDS011;18022;45.492;11.548;2022-08-24T09:26:17;1.60;;;0.90;;
31390;SDS011;18022;45.492;11.548;2022-08-24T09:33:27;2.72;;;0.80;;
31390;SDS011;18022;45.492;11.548;2022-08-24T09:41:37;4.97;;;0.93;;
31390;SDS011;18022;45.492;11.548;2022-08-24T09:50:00;1.98;;;0.85;;
31390;SDS011;18022;45.492;11.548;2022-08-24T10:07:01;0.77;;;0.77;;
31390;SDS011;18022;45.492;11.548;2022-08-24T10:20:53;1.35;;;1.25;;
31390;SDS011;18022;45.492;11.548;2022-08-24T10:23:55;4.03;;;1.25;;
31390;SDS011;18022;45.492;11.548;2022-08-24T10:32:21;1.38;;;0.90;;
31390;SDS011;18022;45.492;11.548;2022-08-24T10:43:21;2.22;;;1.10;;
31390;SDS011;18022;45.492;11.548;2022-08-24T10:54:38;4.10;;;0.90;;
31390;SDS011;18022;45.492;11.548;2022-08-24T11:00:08;4.82;;;1.13;;
31390;SDS011;18022;45.492;11.548;2022-08-24T11:02:39;1.50;;;1.00;;
31390;SDS011;18022;45.492;11.548;2022-08-24T11:05:10;2.15;;;0.60;;
31390;SDS011;18022;45.492;11.548;2022-08-24T11:08:00;1.90;;;0.77;;
31390;SDS011;18022;45.492;11.548;2022-08-24T11:10:30;1.00;;;0.82;;
31390;SDS011;18022;45.492;11.548;2022-08-24T11:15:46;1.50;;;1.08;;
31390;SDS011;18022;45.492;11.548;2022-08-24T11:18:26;2.38;;;1.15;;
31390;SDS011;18022;45.492;11.548;2022-08-24T11:21:30;3.10;;;0.90;;
31390;SDS011;18022;45.492;11.548;2022-08-24T11:24:22;2.20;;;1.08;;
31390;SDS011;18022;45.492;11.548;2022-08-24T11:26:55;2.75;;;0.90;;
31390;SDS011;18022;45.492;11.548;2022-08-24T11:29:25;7.18;;;1.60;;
31390;SDS011;18022;45.492;11.548;2022-08-24T11:31:55;1.42;;;0.90;;
31390;SDS011;18022;45.492;11.548;2022-08-24T11:34:31;3.17;;;0.93;;
31390;SDS011;18022;45.492;11.548;2022-08-24T11:37:00;4.88;;;0.80;;
31390;SDS011;18022;45.492;11.548;2022-08-24T11:39:33;2.15;;;0.90;;
31390;SDS011;18022;45.492;11.548;2022-08-24T11:45:11;1.42;;;1.08;;
31390;SDS011;18022;45.492;11.548;2022-08-24T11:47:51;0.70;;;0.70;;
31390;SDS011;18022;45.492;11.548;2022-08-24T12:01:34;1.08;;;0.80;;
31390;SDS011;18022;45.492;11.548;2022-08-24T12:07:17;0.93;;;0.70;;
31390;SDS011;18022;45.492;11.548;2022-08-24T12:10:15;0.70;;;0.70;;
31390;SDS011;18022;45.492;11.548;2022-08-24T12:13:00;0.93;;;0.82;;
31390;SDS011;18022;45.492;11.548;2022-08-24T12:18:07;0.60;;;0.60;;
31390;SDS011;18022;45.492;11.548;2022-08-24T12:20:45;2.85;;;0.82;;
31390;SDS011;18022;45.492;11.548;2022-08-24T12:25:56;0.95;;;0.70;;
31390;SDS011;18022;45.492;11.548;2022-08-24T12:28:51;5.75;;;0.90;;
31390;SDS011;18022;45.492;11.548;2022-08-24T12:31:22;0.80;;;0.80;;
31390;SDS011;18022;45.492;11.548;2022-08-24T12:34:02;1.88;;;1.75;;
31390;SDS011;18022;45.492;11.548;2022-08-24T12:36:35;1.98;;;0.70;;
31390;SDS011;18022;45.492;11.548;2022-08-24T12:39:13;1.00;;;0.70;;
31390;SDS011;18022;45.492;11.548;2022-08-24T12:45:13;0.75;;;0.70;;
31390;SDS011;18022;45.492;11.548;2022-08-24T12:50:23;0.55;;;0.52;;
31390;SDS011;18022;45.492;11.548;2022-08-24T12:55:54;1.48;;;1.00;;
31390;SDS011;18022;45.492;11.548;2022-08-24T13:01:08;1.05;;;0.70;;
31390;SDS011;18022;45.492;11.548;2022-08-24T13:03:37;4.05;;;0.70;;
31390;SDS011;18022;45.492;11.548;2022-08-24T13:06:39;0.82;;;0.70;;
31390;SDS011;18022;45.492;11.548;2022-08-24T13:11:41;2.92;;;0.80;;
31390;SDS011;18022;45.492;11.548;2022-08-24T13:14:23;1.55;;;0.60;;
31390;SDS011;18022;45.492;11.548;2022-08-24T13:21:58;3.50;;;0.70;;
31390;SDS011;18022;45.492;11.548;2022-08-24T13:32:56;2.42;;;0.93;;
31390;SDS011;18022;45.492;11.548;2022-08-24T13:38:21;1.95;;;0.80;;
31390;SDS011;18022;45.492;11.548;2022-08-24T13:40:54;0.75;;;0.75;;
31390;SDS011;18022;45.492;11.548;2022-08-24T13:46:31;0.60;;;0.60;;
31390;SDS011;18022;45.492;11.548;2022-08-24T13:51:41;1.10;;;0.80;;
31390;SDS011;18022;45.492;11.548;2022-08-24T13:54:35;2.05;;;0.60;;
31390;SDS011;18022;45.492;11.548;2022-08-24T14:02:38;2.55;;;0.77;;
31390;SDS011;18022;45.492;11.548;2022-08-24T14:05:32;1.45;;;0.80;;
31390;SDS011;18022;45.492;11.548;2022-08-24T14:16:40;1.40;;;0.73;;
31390;SDS011;18022;45.492;11.548;2022-08-24T14:22:29;1.13;;;0.80;;
31390;SDS011;18022;45.492;11.548;2022-08-24T14:25:14;1.00;;;0.70;;
31390;SDS011;18022;45.492;11.548;2022-08-24T14:33:30;0.65;;;0.57;;
31390;SDS011;18022;45.492;11.548;2022-08-24T14:38:25;0.73;;;0.73;;
31390;SDS011;18022;45.492;11.548;2022-08-24T14:43:43;1.20;;;0.90;;
31390;SDS011;18022;45.492;11.548;2022-08-24T14:46:22;2.65;;;1.30;;
31390;SDS011;18022;45.492;11.548;2022-08-24T14:49:07;1.58;;;0.95;;
31390;SDS011;18022;45.492;11.548;2022-08-24T15:07:37;0.82;;;0.80;;
31390;SDS011;18022;45.492;11.548;2022-08-24T15:10:09;2.75;;;1.02;;
31390;SDS011;18022;45.492;11.548;2022-08-24T15:12:38;0.80;;;0.55;;
31390;SDS011;18022;45.492;11.548;2022-08-24T15:24:13;1.00;;;0.45;;
31390;SDS011;18022;45.492;11.548;2022-08-24T15:29:24;0.70;;;0.60;;
31390;SDS011;18022;45.492;11.548;2022-08-24T15:32:04;1.17;;;0.60;;
31390;SDS011;18022;45.492;11.548;2022-08-24T15:37:01;1.42;;;0.80;;
31390;SDS011;18022;45.492;11.548;2022-08-24T15:39:27;0.60;;;0.60;;
31390;SDS011;18022;45.492;11.548;2022-08-24T15:41:53;1.00;;;0.80;;
31390;SDS011;18022;45.492;11.548;2022-08-24T15:44:27;1.30;;;0.80;;
31390;SDS011;18022;45.492;11.548;2022-08-24T15:46:56;3.97;;;0.98;;
31390;SDS011;18022;45.492;11.548;2022-08-24T15:49:44;1.30;;;0.70;;
31390;SDS011;18022;45.492;11.548;2022-08-24T15:52:59;2.13;;;0.90;;
31390;SDS011;18022;45.492;11.548;2022-08-24T15:55:02;1.05;;;0.60;;
31390;SDS011;18022;45.492;11.548;2022-08-24T15:57:33;3.72;;;0.60;;
31390;SDS011;18022;45.492;11.548;2022-08-24T16:00:24;0.70;;;0.65;;
31390;SDS011;18022;45.492;11.548;2022-08-24T16:03:43;0.60;;;0.60;;
31390;SDS011;18022;45.492;11.548;2022-08-24T16:06:19;1.15;;;0.80;;
31390;SDS011;18022;45.492;11.548;2022-08-24T16:09:08;3.10;;;0.73;;
31390;SDS011;18022;45.492;11.548;2022-08-24T16:17:00;1.27;;;1.00;;
31390;SDS011;18022;45.492;11.548;2022-08-24T16:19:51;0.70;;;0.70;;
31390;SDS011;18022;45.492;11.548;2022-08-24T16:22:26;2.25;;;0.80;;
31390;SDS011;18022;45.492;11.548;2022-08-24T16:25:08;1.77;;;0.80;;
31390;SDS011;18022;45.492;11.548;2022-08-24T16:27:56;0.70;;;0.70;;
31390;SDS011;18022;45.492;11.548;2022-08-24T16:30:36;2.65;;;0.90;;
31390;SDS011;18022;45.492;11.548;2022-08-24T16:33:02;0.90;;;0.80;;
31390;SDS011;18022;45.492;11.548;2022-08-24T16:35:28;1.20;;;0.75;;
31390;SDS011;18022;45.492;11.548;2022-08-24T16:37:55;0.93;;;0.85;;
31390;SDS011;18022;45.492;11.548;2022-08-24T16:40:21;1.30;;;0.80;;
31390;SDS011;18022;45.492;11.548;2022-08-24T16:42:48;0.77;;;0.70;;
31390;SDS011;18022;45.492;11.548;2022-08-24T16:45:15;0.98;;;0.88;;
31390;SDS011;18022;45.492;11.548;2022-08-24T16:47:43;0.93;;;0.70;;
31390;SDS011;18022;45.492;11.548;2022-08-24T16:50:11;2.53;;;0.73;;
31390;SDS011;18022;45.492;11.548;2022-08-24T16:52:41;2.00;;;0.98;;
31390;SDS011;18022;45.492;11.548;2022-08-24T16:55:07;3.95;;;1.15;;
31390;SDS011;18022;45.492;11.548;2022-08-24T16:57:33;3.25;;;0.93;;
31390;SDS011;18022;45.492;11.548;2022-08-24T17:00:03;1.83;;;1.13;;
31390;SDS011;18022;45.492;11.548;2022-08-24T17:02:34;2.53;;;1.30;;
31390;SDS011;18022;45.492;11.548;2022-08-24T17:04:59;1.33;;;1.20;;
31390;SDS011;18022;45.492;11.548;2022-08-24T17:07:26;1.10;;;1.00;;
31390;SDS011;18022;45.492;11.548;2022-08-24T17:09:54;1.08;;;0.90;;
31390;SDS011;18022;45.492;11.548;2022-08-24T17:12:21;1.40;;;1.27;;
31390;SDS011;18022;45.492;11.548;2022-08-24T17:14:47;1.60;;;0.80;;
31390;SDS011;18022;45.492;11.548;2022-08-24T17:17:14;2.55;;;0.88;;
31390;SDS011;18022;45.492;11.548;2022-08-24T17:19:44;1.15;;;0.90;;
31390;SDS011;18022;45.492;11.548;2022-08-24T17:22:12;3.45;;;0.85;;
31390;SDS011;18022;45.492;11.548;2022-08-24T17:24:39;1.53;;;0.80;;
31390;SDS011;18022;45.492;11.548;2022-08-24T17:27:04;9.60;;;1.10;;
31390;SDS011;18022;45.492;11.548;2022-08-24T17:29:30;1.40;;;1.05;;
31390;SDS011;18022;45.492;11.548;2022-08-24T17:31:56;2.85;;;0.90;;
31390;SDS011;18022;45.492;11.548;2022-08-24T17:34:23;2.63;;;1.02;;
31390;SDS011;18022;45.492;11.548;2022-08-24T17:36:52;2.90;;;1.00;;
31390;SDS011;18022;45.492;11.548;2022-08-24T17:39:20;2.38;;;1.00;;
31390;SDS011;18022;45.492;11.548;2022-08-24T17:41:53;1.30;;;1.00;;
31390;SDS011;18022;45.492;11.548;2022-08-24T17:44:21;3.15;;;1.00;;
31390;SDS011;18022;45.492;11.548;2022-08-24T17:46:50;2.63;;;1.02;;
31390;SDS011;18022;45.492;11.548;2022-08-24T17:49:18;1.38;;;0.85;;
31390;SDS011;18022;45.492;11.548;2022-08-24T17:51:45;1.00;;;0.70;;
31390;SDS011;18022;45.492;11.548;2022-08-24T17:54:11;3.22;;;0.90;;
31390;SDS011;18022;45.492;11.548;2022-08-24T17:56:37;0.93;;;0.90;;
31390;SDS011;18022;45.492;11.548;2022-08-24T17:59:10;2.22;;;1.08;;
31390;SDS011;18022;45.492;11.548;2022-08-24T18:01:44;0.90;;;0.90;;
31390;SDS011;18022;45.492;11.548;2022-08-24T18:04:10;1.08;;;1.00;;
31390;SDS011;18022;45.492;11.548;2022-08-24T18:06:36;2.33;;;0.98;;
31390;SDS011;18022;45.492;11.548;2022-08-24T18:09:06;2.25;;;0.90;;
31390;SDS011;18022;45.492;11.548;2022-08-24T18:11:38;1.38;;;1.27;;
31390;SDS011;18022;45.492;11.548;2022-08-24T18:14:04;3.67;;;0.90;;
31390;SDS011;18022;45.492;11.548;2022-08-24T18:16:30;0.85;;;0.85;;
31390;SDS011;18022;45.492;11.548;2022-08-24T18:18:56;5.63;;;1.00;;
31390;SDS011;18022;45.492;11.548;2022-08-24T18:21:22;1.00;;;0.90;;
31390;SDS011;18022;45.492;11.548;2022-08-24T18:23:48;1.52;;;0.93;;
31390;SDS011;18022;45.492;11.548;2022-08-24T18:26:17;6.20;;;1.38;;
31390;SDS011;18022;45.492;11.548;2022-08-24T18:28:48;2.78;;;1.00;;
31390;SDS011;18022;45.492;11.548;2022-08-24T18:31:14;5.13;;;1.10;;
31390;SDS011;18022;45.492;11.548;2022-08-24T18:33:40;2.95;;;1.77;;
31390;SDS011;18022;45.492;11.548;2022-08-24T18:36:05;1.52;;;1.30;;
31390;SDS011;18022;45.492;11.548;2022-08-24T18:38:31;4.30;;;1.00;;
31390;SDS011;18022;45.492;11.548;2022-08-24T18:40:58;11.98;;;1.10;;
31390;SDS011;18022;45.492;11.548;2022-08-24T18:43:25;0.85;;;0.85;;
31390;SDS011;18022;45.492;11.548;2022-08-24T18:45:52;2.30;;;1.00;;